createdAt,value
2022-12-04T00:01:24.027Z,0.26
2022-12-04T00:03:54.387Z,0.29
2022-12-04T00:06:23.146Z,0.22
2022-12-04T00:08:51.932Z,0.27
2022-12-04T00:11:24.258Z,0.27
2022-12-04T00:13:52.539Z,0.31
2022-12-04T00:16:22.579Z,0.30
2022-12-04T00:18:51.015Z,0.31
2022-12-04T00:21:21.079Z,0.35
2022-12-04T00:23:49.341Z,0.32
2022-12-04T00:26:19.594Z,0.14
2022-12-04T00:28:49.560Z,0.44
2022-12-04T00:31:19.029Z,0.43
2022-12-04T00:33:47.312Z,0.40
2022-12-04T00:36:17.209Z,0.44
2022-12-04T00:38:45.340Z,0.39
2022-12-04T00:41:14.939Z,0.41
2022-12-04T00:43:43.009Z,0.36
2022-12-04T00:46:12.893Z,0.31
2022-12-04T00:48:41.206Z,0.32
2022-12-04T00:51:12.040Z,0.31
2022-12-04T00:53:40.786Z,0.41
2022-12-04T00:56:11.226Z,0.35
2022-12-04T00:58:39.300Z,0.25
2022-12-04T01:01:10.178Z,0.43
2022-12-04T01:03:39.906Z,0.45
2022-12-04T01:06:08.732Z,0.46
2022-12-04T01:08:36.826Z,0.39
2022-12-04T01:11:07.335Z,0.41
2022-12-04T01:13:35.445Z,0.40
2022-12-04T01:16:03.608Z,0.41
2022-12-04T01:18:31.869Z,0.39
2022-12-04T01:21:01.310Z,0.05
2022-12-04T01:23:29.521Z,0.28
2022-12-04T01:25:59.662Z,0.31
2022-12-04T01:28:27.809Z,0.26
2022-12-04T01:31:03.574Z,0.19
2022-12-04T01:33:32.172Z,0.24
2022-12-04T01:36:02.778Z,0.22
2022-12-04T01:38:30.974Z,0.25
2022-12-04T01:41:02.716Z,0.32
2022-12-04T01:43:31.974Z,0.32
2022-12-04T01:46:01.027Z,0.32
2022-12-04T01:48:31.867Z,0.33
2022-12-04T01:51:05.524Z,0.33
2022-12-04T01:53:35.131Z,0.22
2022-12-04T01:56:04.091Z,0.21
2022-12-04T01:58:36.362Z,0.32
2022-12-04T02:01:09.147Z,0.34
2022-12-04T02:03:38.155Z,0.33
2022-12-04T02:06:08.194Z,0.32
2022-12-04T02:08:37.009Z,0.32
2022-12-04T02:11:12.983Z,0.27
2022-12-04T02:13:47.828Z,0.32
2022-12-04T02:16:19.898Z,0.22
2022-12-04T02:18:57.284Z,0.13
2022-12-04T02:21:31.468Z,0.08
2022-12-04T02:24:29.654Z,0.31
2022-12-04T02:27:00.966Z,0.31
2022-12-04T02:29:36.051Z,0.22
2022-12-04T02:32:09.170Z,0.22
2022-12-04T02:34:40.573Z,0.14
2022-12-04T02:37:11.653Z,0.11
2022-12-04T02:39:42.843Z,0.05
2022-12-04T02:42:14.353Z,0.05
2022-12-04T02:44:46.261Z,0.00
2022-12-04T02:47:16.023Z,0.03
2022-12-04T02:49:46.750Z,0.04
2022-12-04T02:52:17.676Z,0.07
2022-12-04T02:54:50.358Z,-0.01
2022-12-04T02:57:21.379Z,-0.03
2022-12-04T02:59:58.190Z,-0.26
2022-12-04T03:02:32.081Z,-0.06
2022-12-04T03:05:02.747Z,-0.03
2022-12-04T03:07:35.724Z,-0.06
2022-12-04T03:10:07.675Z,-0.16
2022-12-04T03:12:40.748Z,-0.17
2022-12-04T03:15:13.808Z,-0.21
2022-12-04T03:17:46.295Z,-0.49
2022-12-04T03:20:15.925Z,-0.22
2022-12-04T03:22:45.649Z,-0.20
2022-12-04T03:25:13.979Z,-0.24
2022-12-04T03:27:46.789Z,-0.31
2022-12-04T03:30:20.831Z,-0.21
2022-12-04T03:32:51.968Z,-0.25
2022-12-04T03:35:23.178Z,-0.21
2022-12-04T03:37:55.633Z,-0.22
2022-12-04T03:40:26.722Z,-0.20
2022-12-04T03:43:00.545Z,-0.20
2022-12-04T03:45:30.702Z,-0.20
2022-12-04T03:48:04.325Z,-0.46
2022-12-04T03:50:36.606Z,-0.26
2022-12-04T03:53:09.082Z,-0.25
2022-12-04T03:55:41.833Z,-0.28
2022-12-04T03:58:13.386Z,-0.32
2022-12-04T04:00:43.910Z,-0.63
2022-12-04T04:03:16.316Z,-0.47
2022-12-04T04:05:48.446Z,-0.81
2022-12-04T04:08:28.142Z,-0.49
2022-12-04T04:11:00.098Z,-0.47
2022-12-04T04:13:47.145Z,-0.45
2022-12-04T04:16:48.185Z,-0.54
2022-12-04T04:19:35.116Z,-0.45
2022-12-04T04:22:23.715Z,-0.43
2022-12-04T04:24:54.948Z,-0.46
2022-12-04T04:27:23.020Z,-0.43
2022-12-04T04:29:53.000Z,-0.45
2022-12-04T04:32:27.898Z,-0.52
2022-12-04T04:34:59.393Z,-0.51
2022-12-04T04:37:31.923Z,-0.52
2022-12-04T04:40:05.824Z,-0.50
2022-12-04T04:42:37.802Z,-0.49
2022-12-04T04:45:09.894Z,-0.54
2022-12-04T04:47:42.960Z,-0.56
2022-12-04T04:50:12.741Z,-0.54
2022-12-04T04:52:43.548Z,-0.53
2022-12-04T04:55:12.108Z,-0.53
2022-12-04T04:57:40.116Z,-0.56
2022-12-04T05:00:11.635Z,-0.58
2022-12-04T05:02:41.335Z,-0.58
2022-12-04T05:05:10.413Z,-0.63
2022-12-04T05:07:38.488Z,-0.86
2022-12-04T05:10:08.139Z,-0.83
2022-12-04T05:12:36.404Z,-0.63
2022-12-04T05:15:05.181Z,-0.80
2022-12-04T05:17:33.501Z,-0.57
2022-12-04T05:20:02.987Z,-0.58
2022-12-04T05:22:32.920Z,-0.61
2022-12-04T05:25:01.796Z,-0.65
2022-12-04T05:27:31.308Z,-0.60
2022-12-04T05:29:59.708Z,-0.61
2022-12-04T05:32:29.402Z,-0.60
2022-12-04T05:34:58.509Z,-0.62
2022-12-04T05:37:28.506Z,-0.55
2022-12-04T05:39:56.839Z,-0.58
2022-12-04T05:42:24.967Z,-0.60
2022-12-04T05:44:53.044Z,-0.58
2022-12-04T05:47:21.091Z,-0.64
2022-12-04T05:49:49.181Z,-0.76
2022-12-04T05:52:17.168Z,-0.57
2022-12-04T05:54:46.885Z,-0.89
2022-12-04T05:57:14.869Z,-0.77
2022-12-04T05:59:43.029Z,-0.69
2022-12-04T06:02:11.185Z,-0.65
2022-12-04T06:04:39.529Z,-0.96
2022-12-04T06:07:07.563Z,-0.68
2022-12-04T06:09:35.657Z,-0.68
2022-12-04T06:12:05.711Z,-0.77
2022-12-04T06:14:39.328Z,-0.78
2022-12-04T06:17:08.139Z,-0.65
2022-12-04T06:19:36.550Z,-0.63
2022-12-04T06:22:04.999Z,-0.84
2022-12-04T06:24:33.082Z,-0.58
2022-12-04T06:27:26.672Z,-0.58
2022-12-04T06:29:51.066Z,-0.58
2022-12-04T06:32:21.779Z,-0.64
2022-12-04T06:34:52.672Z,-0.76
2022-12-04T06:37:21.139Z,-0.62
2022-12-04T06:39:49.246Z,-0.60
2022-12-04T06:42:17.535Z,-0.53
2022-12-04T06:44:45.660Z,-0.47
2022-12-04T06:47:15.178Z,-0.42
2022-12-04T06:49:46.189Z,-0.30
2022-12-04T06:52:14.222Z,-0.27
2022-12-04T06:54:42.418Z,-0.20
2022-12-04T06:57:10.481Z,-0.14
2022-12-04T06:59:38.919Z,-0.14
2022-12-04T07:02:07.301Z,-0.02
2022-12-04T07:04:37.437Z,-0.04
2022-12-04T07:07:06.082Z,0.11
2022-12-04T07:09:34.122Z,0.13
2022-12-04T07:12:02.313Z,0.20
2022-12-04T07:14:30.493Z,0.27
2022-12-04T07:16:58.633Z,0.31
2022-12-04T07:19:26.765Z,0.32
2022-12-04T07:21:56.171Z,0.10
2022-12-04T07:24:24.235Z,0.40
2022-12-04T07:26:52.462Z,0.38
2022-12-04T07:29:20.640Z,0.35
2022-12-04T07:31:49.084Z,0.46
2022-12-04T07:34:17.285Z,0.58
2022-12-04T07:36:45.318Z,0.66
2022-12-04T07:39:14.717Z,0.54
2022-12-04T07:41:42.841Z,0.73
2022-12-04T07:44:10.897Z,0.77
2022-12-04T07:46:38.951Z,0.85
2022-12-04T07:49:06.979Z,0.92
2022-12-04T07:51:35.213Z,0.93
2022-12-04T07:54:04.470Z,1.14
2022-12-04T07:56:34.698Z,1.39
2022-12-04T07:59:03.567Z,1.86
2022-12-04T08:01:31.914Z,2.20
2022-12-04T08:04:01.801Z,2.36
2022-12-04T08:06:32.924Z,2.70
2022-12-04T08:09:06.166Z,2.91
2022-12-04T08:11:39.007Z,2.74
2022-12-04T08:14:08.862Z,2.99
2022-12-04T08:16:37.202Z,3.47
2022-12-04T08:19:05.890Z,4.39
2022-12-04T08:21:35.517Z,5.60
2022-12-04T08:24:04.233Z,6.97
2022-12-04T08:26:33.629Z,8.28
2022-12-04T08:29:04.107Z,9.38
2022-12-04T08:31:34.130Z,10.35
2022-12-04T08:34:04.537Z,10.97
2022-12-04T08:36:32.995Z,11.03
2022-12-04T08:39:01.245Z,9.99
2022-12-04T08:41:29.289Z,8.53
2022-12-04T08:43:58.085Z,6.96
2022-12-04T08:46:29.149Z,6.05
2022-12-04T08:48:57.877Z,5.58
2022-12-04T08:51:27.297Z,5.40
2022-12-04T08:53:59.168Z,5.09
2022-12-04T08:56:29.980Z,5.24
2022-12-04T08:58:58.509Z,5.05
2022-12-04T09:01:28.855Z,5.59
2022-12-04T09:03:57.518Z,5.54
2022-12-04T09:06:26.845Z,5.51
2022-12-04T09:08:56.821Z,6.28
2022-12-04T09:11:27.881Z,6.92
2022-12-04T09:13:56.273Z,8.16
2022-12-04T09:16:25.741Z,10.07
2022-12-04T09:18:55.608Z,11.09
2022-12-04T09:21:25.150Z,12.69
2022-12-04T09:23:53.193Z,13.24
2022-12-04T09:26:23.450Z,13.55
2022-12-04T09:28:51.995Z,14.42
2022-12-04T09:31:20.516Z,14.66
2022-12-04T09:33:48.714Z,15.01
2022-12-04T09:36:18.208Z,13.64
2022-12-04T09:38:47.740Z,13.18
2022-12-04T09:41:39.511Z,12.20
2022-12-04T09:44:09.955Z,10.71
2022-12-04T09:46:40.543Z,9.51
2022-12-04T09:49:14.178Z,9.02
2022-12-04T09:51:43.956Z,8.72
2022-12-04T09:54:15.203Z,8.49
2022-12-04T09:56:55.115Z,8.72
2022-12-04T09:59:25.124Z,9.46
2022-12-04T10:01:57.681Z,10.25
2022-12-04T10:04:26.285Z,11.08
2022-12-04T10:07:02.286Z,11.48
2022-12-04T10:09:37.069Z,11.07
2022-12-04T10:12:13.939Z,10.70
2022-12-04T10:14:53.909Z,11.07
2022-12-04T10:17:34.802Z,11.13
2022-12-04T10:20:13.211Z,11.22
2022-12-04T10:22:51.890Z,11.49
2022-12-04T10:25:22.759Z,11.43
2022-12-04T10:27:54.649Z,12.23
2022-12-04T10:30:24.169Z,11.87
2022-12-04T10:32:56.547Z,12.21
2022-12-04T10:35:26.461Z,13.55
2022-12-04T10:37:58.848Z,14.82
2022-12-04T10:40:31.597Z,13.43
2022-12-04T10:43:04.555Z,12.91
2022-12-04T10:45:34.124Z,13.32
2022-12-04T10:48:02.367Z,14.78
2022-12-04T10:50:30.922Z,15.37
2022-12-04T10:53:00.442Z,14.01
2022-12-04T10:55:30.091Z,14.88
2022-12-04T10:57:58.376Z,15.32
2022-12-04T11:00:29.861Z,15.41
2022-12-04T11:03:00.997Z,15.43
2022-12-04T11:05:31.631Z,15.03
2022-12-04T11:08:02.703Z,14.47
2022-12-04T11:10:36.684Z,14.18
2022-12-04T11:13:07.363Z,13.08
2022-12-04T11:15:44.049Z,12.24
2022-12-04T11:18:19.780Z,11.02
2022-12-04T11:20:54.866Z,9.66
2022-12-04T11:23:25.841Z,9.25
2022-12-04T11:26:02.097Z,8.53
2022-12-04T11:28:41.548Z,8.34
2022-12-04T11:31:11.394Z,7.84
2022-12-04T11:33:41.845Z,7.52
2022-12-04T11:36:21.100Z,7.19
2022-12-04T11:38:51.751Z,6.94
2022-12-04T11:41:27.449Z,6.77
2022-12-04T11:43:59.993Z,6.50
2022-12-04T11:46:30.977Z,6.39
2022-12-04T11:48:59.372Z,6.21
2022-12-04T11:51:39.971Z,6.07
2022-12-04T11:54:18.864Z,5.90
2022-12-04T11:56:48.969Z,6.05
2022-12-04T11:59:36.181Z,6.02
2022-12-04T12:02:16.800Z,5.91
2022-12-04T12:04:59.711Z,5.73
2022-12-04T12:07:39.522Z,5.73
2022-12-04T12:10:14.487Z,5.67
2022-12-04T12:12:51.118Z,5.57
2022-12-04T12:15:25.763Z,5.45
2022-12-04T12:18:06.330Z,5.44
2022-12-04T12:20:38.475Z,5.45
2022-12-04T12:23:22.234Z,5.51
2022-12-04T12:25:57.141Z,5.46
2022-12-04T12:28:46.654Z,5.37
2022-12-04T12:31:32.750Z,5.42
2022-12-04T12:34:05.458Z,5.44
2022-12-04T12:36:43.435Z,5.46
2022-12-04T12:39:14.060Z,5.43
2022-12-04T12:41:45.256Z,5.34
2022-12-04T12:44:17.415Z,5.33
2022-12-04T12:46:51.448Z,5.14
2022-12-04T12:49:22.756Z,5.37
2022-12-04T12:51:54.427Z,5.47
2022-12-04T12:54:30.137Z,5.36
2022-12-04T12:57:04.476Z,5.33
2022-12-04T12:59:36.460Z,5.00
2022-12-04T13:02:07.791Z,5.01
2022-12-04T13:04:39.684Z,5.14
2022-12-04T13:07:22.994Z,5.08
2022-12-04T13:09:56.448Z,5.01
2022-12-04T13:12:26.703Z,5.01
2022-12-04T13:14:55.008Z,4.95
2022-12-04T13:17:30.421Z,5.03
2022-12-04T13:19:59.090Z,4.83
2022-12-04T13:22:31.437Z,4.98
2022-12-04T13:25:27.979Z,4.94
2022-12-04T13:28:06.700Z,4.88
2022-12-04T13:30:44.234Z,4.81
2022-12-04T13:33:29.386Z,4.80
2022-12-04T13:36:13.608Z,4.51
2022-12-04T13:38:52.553Z,4.71
2022-12-04T13:41:24.934Z,4.48
2022-12-04T13:43:55.621Z,4.40
2022-12-04T13:46:34.531Z,4.60
2022-12-04T13:49:11.099Z,4.59
2022-12-04T13:51:41.448Z,4.59
2022-12-04T13:54:25.259Z,4.54
2022-12-04T13:56:55.514Z,4.54
2022-12-04T13:59:35.879Z,4.56
2022-12-04T14:02:08.435Z,4.51
2022-12-04T14:04:42.061Z,4.50
2022-12-04T14:07:27.024Z,4.49
2022-12-04T14:09:57.881Z,4.49
2022-12-04T14:12:30.154Z,4.48
2022-12-04T14:15:01.506Z,4.45
2022-12-04T14:17:31.633Z,4.47
2022-12-04T14:20:07.313Z,4.41
2022-12-04T14:22:43.231Z,4.35
2022-12-04T14:25:34.565Z,4.40
2022-12-04T14:28:14.287Z,4.32
2022-12-04T14:30:45.823Z,4.29
2022-12-04T14:33:20.204Z,4.29
2022-12-04T14:35:51.953Z,4.27
2022-12-04T14:38:22.602Z,4.06
2022-12-04T14:40:52.263Z,4.19
2022-12-04T14:43:22.885Z,4.22
2022-12-04T14:45:56.762Z,4.26
2022-12-04T14:48:34.057Z,4.19
2022-12-04T14:51:09.489Z,4.20
2022-12-04T14:53:43.187Z,4.09
2022-12-04T14:56:24.817Z,4.14
2022-12-04T14:58:53.207Z,4.08
2022-12-04T15:01:29.015Z,4.08
2022-12-04T15:04:00.227Z,3.89
2022-12-04T15:06:31.378Z,3.97
2022-12-04T15:09:15.454Z,3.95
2022-12-04T15:12:04.762Z,3.96
2022-12-04T15:14:42.172Z,3.61
2022-12-04T15:17:13.877Z,3.88
2022-12-04T15:19:42.564Z,3.81
2022-12-04T15:22:15.124Z,3.82
2022-12-04T15:24:43.879Z,3.80
2022-12-04T15:27:13.024Z,3.85
2022-12-04T15:29:48.262Z,3.80
2022-12-04T15:32:19.496Z,3.81
2022-12-04T15:34:51.291Z,3.84
2022-12-04T15:37:23.397Z,3.84
2022-12-04T15:39:53.008Z,3.80
2022-12-04T15:42:27.362Z,3.78
2022-12-04T15:45:01.359Z,3.79
2022-12-04T15:47:33.278Z,3.78
2022-12-04T15:50:10.849Z,3.77
2022-12-04T15:52:39.283Z,3.63
2022-12-04T15:55:09.465Z,3.67
2022-12-04T15:57:39.409Z,3.69
2022-12-04T16:00:20.298Z,3.74
2022-12-04T16:02:50.055Z,3.73
2022-12-04T16:05:32.820Z,3.62
2022-12-04T16:08:02.192Z,3.69
2022-12-04T16:10:32.118Z,3.68
2022-12-04T16:13:02.391Z,3.66
2022-12-04T16:15:37.755Z,3.58
2022-12-04T16:18:08.634Z,3.58
2022-12-04T16:20:37.781Z,3.57
2022-12-04T16:23:06.166Z,3.54
2022-12-04T16:25:34.250Z,3.55
2022-12-04T16:28:03.028Z,3.54
2022-12-04T16:30:33.430Z,3.47
2022-12-04T16:33:01.830Z,3.40
2022-12-04T16:35:31.815Z,3.37
2022-12-04T16:38:00.667Z,3.34
2022-12-04T16:40:28.875Z,3.29
2022-12-04T16:42:57.305Z,3.27
2022-12-04T16:45:28.183Z,3.28
2022-12-04T16:47:58.000Z,3.23
2022-12-04T16:50:26.417Z,3.20
2022-12-04T16:52:55.941Z,3.21
2022-12-04T16:55:30.125Z,3.21
2022-12-04T16:57:58.247Z,3.20
2022-12-04T17:00:26.406Z,2.98
2022-12-04T17:02:54.441Z,3.18
2022-12-04T17:05:24.228Z,3.20
2022-12-04T17:07:52.503Z,3.19
2022-12-04T17:10:24.325Z,3.23
2022-12-04T17:12:53.711Z,3.02
2022-12-04T17:15:21.754Z,3.21
2022-12-04T17:17:49.953Z,3.17
2022-12-04T17:20:19.552Z,3.23
2022-12-04T17:22:47.665Z,3.17
2022-12-04T17:25:16.910Z,3.24
2022-12-04T17:27:47.188Z,3.26
2022-12-04T17:30:16.172Z,3.01
2022-12-04T17:32:44.817Z,3.22
2022-12-04T17:35:13.573Z,3.25
2022-12-04T17:37:42.012Z,3.23
2022-12-04T17:40:13.022Z,3.14
2022-12-04T17:42:41.355Z,3.07
2022-12-04T17:45:12.378Z,3.23
2022-12-04T17:47:40.761Z,3.17
2022-12-04T17:50:09.622Z,3.23
2022-12-04T17:52:37.836Z,3.17
2022-12-04T17:55:08.869Z,3.23
2022-12-04T17:57:37.318Z,3.19
2022-12-04T18:00:06.844Z,3.15
2022-12-04T18:02:36.434Z,2.94
2022-12-04T18:05:04.929Z,3.11
2022-12-04T18:07:33.245Z,3.16
2022-12-04T18:10:01.631Z,3.09
2022-12-04T18:12:29.796Z,3.12
2022-12-04T18:14:57.946Z,3.08
2022-12-04T18:17:26.161Z,3.09
2022-12-04T18:19:59.783Z,3.11
2022-12-04T18:22:31.073Z,3.11
2022-12-04T18:25:00.634Z,3.13
2022-12-04T18:27:28.848Z,3.11
2022-12-04T18:29:57.222Z,3.09
2022-12-04T18:32:25.513Z,3.06
2022-12-04T18:34:55.608Z,3.10
2022-12-04T18:37:23.750Z,3.01
2022-12-04T18:39:51.962Z,3.05
2022-12-04T18:42:20.081Z,3.02
2022-12-04T18:44:48.363Z,3.04
2022-12-04T18:47:16.837Z,3.04
2022-12-04T18:49:45.487Z,3.04
2022-12-04T18:52:15.033Z,3.06
2022-12-04T18:54:43.116Z,2.74
2022-12-04T18:57:11.246Z,2.96
2022-12-04T18:59:39.406Z,2.98
2022-12-04T19:02:08.553Z,2.97
2022-12-04T19:04:37.443Z,2.89
2022-12-04T19:07:06.255Z,2.97
2022-12-04T19:10:20.704Z,3.00
2022-12-04T19:12:24.016Z,2.99
2022-12-04T19:14:52.193Z,2.91
2022-12-04T19:17:21.154Z,2.75
2022-12-04T19:19:50.228Z,2.95
2022-12-04T19:22:18.412Z,2.96
2022-12-04T19:24:48.183Z,2.98
2022-12-04T19:27:16.350Z,2.99
2022-12-04T19:29:44.741Z,2.93
2022-12-04T19:32:13.197Z,2.90
2022-12-04T19:34:41.755Z,2.89
2022-12-04T19:37:09.923Z,2.92
2022-12-04T19:39:39.329Z,2.64
2022-12-04T19:42:08.885Z,2.87
2022-12-04T19:44:48.268Z,2.83
2022-12-04T19:47:17.219Z,2.83
2022-12-04T19:49:45.352Z,2.79
2022-12-04T19:52:13.464Z,2.79
2022-12-04T19:54:41.809Z,2.68
2022-12-04T19:57:11.295Z,2.85
2022-12-04T19:59:44.473Z,2.85
2022-12-04T20:02:14.358Z,2.91
2022-12-04T20:04:43.283Z,2.67
2022-12-04T20:07:11.466Z,2.90
2022-12-04T20:09:39.697Z,2.65
2022-12-04T20:12:08.365Z,2.91
2022-12-04T20:14:37.967Z,2.88
2022-12-04T20:17:06.900Z,2.86
2022-12-04T20:19:35.173Z,2.86
2022-12-04T20:22:03.352Z,2.81
2022-12-04T20:24:33.101Z,2.74
2022-12-04T20:27:03.151Z,2.91
2022-12-04T20:29:32.719Z,2.62
2022-12-04T20:32:02.456Z,2.85
2022-12-04T20:34:30.709Z,2.57
2022-12-04T20:36:59.208Z,2.83
2022-12-04T20:39:27.865Z,2.80
2022-12-04T20:41:57.227Z,2.83
2022-12-04T20:44:25.377Z,2.81
2022-12-04T20:46:53.500Z,2.78
2022-12-04T20:49:23.051Z,2.67
2022-12-04T20:51:52.301Z,2.63
2022-12-04T20:54:22.172Z,2.67
2022-12-04T20:56:52.109Z,2.62
2022-12-04T20:59:21.299Z,2.66
2022-12-04T21:01:52.284Z,2.63
2022-12-04T21:04:22.714Z,2.63
2022-12-04T21:06:51.473Z,2.58
2022-12-04T21:09:21.838Z,2.54
2022-12-04T21:11:52.051Z,2.55
2022-12-04T21:14:39.333Z,2.54
2022-12-04T21:17:09.586Z,2.43
2022-12-04T21:19:39.095Z,2.41
2022-12-04T21:22:07.935Z,2.41
2022-12-04T21:24:38.958Z,2.20
2022-12-04T21:27:09.627Z,2.08
2022-12-04T21:29:38.112Z,2.29
2022-12-04T21:32:07.681Z,2.04
2022-12-04T21:34:36.100Z,2.28
2022-12-04T21:37:05.585Z,2.25
2022-12-04T21:39:36.074Z,2.20
2022-12-04T21:42:21.720Z,1.95
2022-12-04T21:44:49.930Z,2.08
2022-12-04T21:47:18.420Z,2.06
2022-12-04T21:49:56.003Z,2.03
2022-12-04T21:52:28.472Z,1.98
2022-12-04T21:54:58.136Z,1.89
2022-12-04T21:57:26.276Z,1.86
2022-12-04T21:59:54.991Z,1.80
2022-12-04T22:02:23.701Z,1.70
2022-12-04T22:04:52.093Z,1.47
2022-12-04T22:07:20.251Z,1.62
2022-12-04T22:09:50.176Z,1.65
2022-12-04T22:12:49.049Z,1.58
2022-12-04T22:15:07.171Z,1.47
2022-12-04T22:17:35.381Z,1.48
2022-12-04T22:20:03.678Z,1.44
2022-12-04T22:22:31.785Z,1.37
2022-12-04T22:25:01.865Z,1.31
2022-12-04T22:27:30.086Z,0.32
2022-12-04T22:29:58.422Z,1.28
2022-12-04T22:32:26.509Z,1.23
2022-12-04T22:34:54.650Z,1.23
2022-12-04T22:37:22.790Z,1.19
2022-12-04T22:39:50.843Z,1.14
2022-12-04T22:42:20.427Z,1.11
2022-12-04T22:44:48.496Z,1.05
2022-12-04T22:47:16.574Z,1.07
2022-12-04T22:49:44.848Z,1.02
2022-12-04T22:52:12.863Z,0.97
2022-12-04T22:54:40.966Z,0.93
2022-12-04T22:57:11.774Z,0.96
2022-12-04T22:59:43.989Z,0.95
2022-12-04T23:02:14.740Z,0.94
2022-12-04T23:04:43.747Z,0.95
2022-12-04T23:07:12.167Z,0.92
2022-12-04T23:09:43.627Z,0.90
2022-12-04T23:12:11.876Z,0.76
2022-12-04T23:14:41.436Z,0.95
2022-12-04T23:17:12.157Z,0.74
2022-12-04T23:19:40.397Z,0.93
2022-12-04T23:22:08.483Z,0.88
2022-12-04T23:24:38.585Z,0.92
2022-12-04T23:27:06.633Z,0.91
2022-12-04T23:29:52.738Z,0.88
2022-12-04T23:32:23.083Z,0.95
2022-12-04T23:34:53.100Z,0.89
2022-12-04T23:37:21.340Z,1.00
2022-12-04T23:39:49.427Z,1.01
2022-12-04T23:42:17.556Z,0.77
2022-12-04T23:44:45.636Z,1.02
2022-12-04T23:47:13.801Z,1.02
2022-12-04T23:49:43.345Z,1.03
2022-12-04T23:52:11.417Z,1.03
2022-12-04T23:54:39.548Z,0.97
2022-12-04T23:57:08.178Z,0.92
2022-12-04T23:59:36.362Z,0.95
